createdAt,value
2023-01-17T00:02:16.608Z,71.28
2023-01-17T00:05:03.906Z,71.26
2023-01-17T00:07:51.214Z,71.07
2023-01-17T00:10:22.070Z,71.21
2023-01-17T00:12:55.627Z,71.14
2023-01-17T00:15:24.289Z,71.05
2023-01-17T00:17:53.850Z,71.17
2023-01-17T00:20:46.074Z,71.28
2023-01-17T00:23:38.820Z,71.18
2023-01-17T00:26:12.025Z,71.19
2023-01-17T00:28:42.881Z,71.16
2023-01-17T00:31:12.375Z,71.15
2023-01-17T00:33:40.377Z,71.29
2023-01-17T00:36:09.161Z,71.25
2023-01-17T00:38:39.190Z,71.21
2023-01-17T00:41:10.072Z,71.22
2023-01-17T00:43:56.700Z,71.23
2023-01-17T00:46:43.437Z,71.27
2023-01-17T00:49:30.208Z,71.29
2023-01-17T00:52:16.668Z,71.32
2023-01-17T00:55:03.343Z,71.41
2023-01-17T00:57:49.649Z,71.52
2023-01-17T01:00:37.711Z,71.29
2023-01-17T01:03:29.434Z,71.37
2023-01-17T01:06:16.245Z,71.40
2023-01-17T01:09:03.165Z,71.38
2023-01-17T01:11:49.437Z,71.34
2023-01-17T01:14:35.993Z,71.56
2023-01-17T01:17:23.187Z,71.52
2023-01-17T01:20:09.701Z,71.37
2023-01-17T01:22:56.113Z,71.33
2023-01-17T01:25:42.587Z,71.32
2023-01-17T01:28:31.192Z,71.33
2023-01-17T01:31:18.971Z,71.42
2023-01-17T01:33:47.099Z,71.31
2023-01-17T01:36:15.590Z,71.34
2023-01-17T01:38:43.495Z,71.45
2023-01-17T01:41:11.856Z,71.37
2023-01-17T01:43:45.017Z,71.31
2023-01-17T01:46:25.760Z,71.22
2023-01-17T01:49:02.288Z,71.29
2023-01-17T01:51:35.367Z,71.22
2023-01-17T01:54:18.236Z,71.11
2023-01-17T01:56:48.317Z,71.19
2023-01-17T01:59:20.365Z,71.16
2023-01-17T02:01:51.800Z,71.16
2023-01-17T02:04:22.229Z,71.19
2023-01-17T02:06:56.331Z,70.97
2023-01-17T02:09:24.464Z,70.76
2023-01-17T02:11:52.803Z,70.64
2023-01-17T02:14:22.424Z,70.64
2023-01-17T02:16:58.147Z,70.79
2023-01-17T02:19:44.856Z,70.81
2023-01-17T02:22:34.955Z,70.76
2023-01-17T02:25:32.066Z,70.60
2023-01-17T02:28:19.899Z,70.51
2023-01-17T02:30:56.372Z,70.42
2023-01-17T02:33:33.733Z,70.49
2023-01-17T02:36:22.481Z,70.70
2023-01-17T02:39:02.834Z,70.69
2023-01-17T02:41:35.730Z,70.63
2023-01-17T02:44:04.273Z,70.59
2023-01-17T02:46:32.167Z,70.70
2023-01-17T02:49:00.669Z,70.66
2023-01-17T02:51:50.034Z,70.54
2023-01-17T02:54:36.185Z,70.71
2023-01-17T02:57:23.553Z,70.71
2023-01-17T03:00:00.606Z,70.80
2023-01-17T03:02:51.841Z,70.63
2023-01-17T03:05:44.565Z,70.81
2023-01-17T03:08:13.396Z,70.68
2023-01-17T03:10:42.562Z,70.83
2023-01-17T03:13:10.463Z,70.77
2023-01-17T03:15:40.113Z,70.74
2023-01-17T03:18:15.028Z,70.68
2023-01-17T03:20:43.180Z,70.77
2023-01-17T03:23:11.099Z,70.62
2023-01-17T03:25:38.985Z,70.62
2023-01-17T03:28:06.993Z,70.55
2023-01-17T03:30:34.963Z,70.67
2023-01-17T03:33:02.941Z,70.62
2023-01-17T03:35:30.960Z,70.71
2023-01-17T03:37:58.927Z,70.71
2023-01-17T03:40:27.089Z,70.70
2023-01-17T03:42:55.079Z,70.75
2023-01-17T03:45:23.024Z,70.79
2023-01-17T03:47:50.974Z,70.77
2023-01-17T03:50:18.869Z,70.80
2023-01-17T03:52:46.776Z,70.87
2023-01-17T03:55:14.801Z,70.83
2023-01-17T03:57:42.640Z,70.98
2023-01-17T04:00:11.271Z,70.94
2023-01-17T04:02:39.214Z,70.82
2023-01-17T04:05:08.227Z,70.95
2023-01-17T04:07:36.098Z,70.85
2023-01-17T04:10:04.589Z,70.92
2023-01-17T04:12:32.528Z,70.91
2023-01-17T04:15:00.442Z,70.89
2023-01-17T04:17:28.434Z,70.85
2023-01-17T04:19:56.359Z,70.77
2023-01-17T04:22:24.355Z,70.79
2023-01-17T04:24:52.304Z,70.87
2023-01-17T04:27:20.222Z,70.80
2023-01-17T04:29:48.095Z,70.87
2023-01-17T04:32:16.025Z,70.93
2023-01-17T04:34:44.019Z,70.95
2023-01-17T04:37:11.967Z,70.93
2023-01-17T04:39:40.050Z,70.83
2023-01-17T04:42:07.905Z,70.96
2023-01-17T04:44:35.807Z,70.96
2023-01-17T04:47:03.843Z,70.99
2023-01-17T04:49:31.761Z,71.04
2023-01-17T04:51:59.811Z,71.02
2023-01-17T04:54:27.729Z,71.02
2023-01-17T04:56:55.624Z,71.12
2023-01-17T04:59:23.555Z,70.95
2023-01-17T05:01:51.545Z,71.01
2023-01-17T05:04:19.573Z,71.08
2023-01-17T05:06:47.478Z,70.90
2023-01-17T05:09:15.333Z,71.05
2023-01-17T05:11:43.219Z,70.86
2023-01-17T05:14:11.304Z,70.90
2023-01-17T05:16:39.193Z,70.95
2023-01-17T05:19:07.064Z,70.91
2023-01-17T05:21:35.153Z,70.78
2023-01-17T05:24:03.580Z,70.74
2023-01-17T05:26:31.521Z,70.74
2023-01-17T05:28:59.382Z,70.64
2023-01-17T05:31:27.323Z,70.64
2023-01-17T05:33:55.263Z,70.63
2023-01-17T05:36:23.199Z,70.54
2023-01-17T05:38:51.074Z,70.44
2023-01-17T05:41:19.034Z,70.51
2023-01-17T05:43:46.939Z,70.28
2023-01-17T05:46:16.210Z,70.23
2023-01-17T05:48:44.174Z,70.37
2023-01-17T05:51:12.147Z,70.35
2023-01-17T05:53:40.027Z,70.19
2023-01-17T05:56:07.994Z,70.19
2023-01-17T05:58:35.907Z,70.30
2023-01-17T06:01:03.908Z,70.20
2023-01-17T06:03:32.006Z,70.30
2023-01-17T06:05:59.888Z,70.31
2023-01-17T06:08:27.880Z,70.20
2023-01-17T06:10:58.820Z,70.15
2023-01-17T06:13:26.741Z,70.23
2023-01-17T06:15:57.656Z,70.31
2023-01-17T06:18:25.806Z,70.32
2023-01-17T06:20:55.307Z,70.22
2023-01-17T06:23:24.523Z,70.13
2023-01-17T06:25:52.576Z,70.20
2023-01-17T06:28:22.734Z,70.13
2023-01-17T06:30:50.668Z,70.09
2023-01-17T06:33:18.962Z,70.15
2023-01-17T06:35:49.092Z,70.06
2023-01-17T06:38:17.725Z,70.02
2023-01-17T06:40:45.840Z,70.14
2023-01-17T06:43:13.865Z,70.09
2023-01-17T06:45:41.772Z,70.12
2023-01-17T06:48:09.790Z,70.07
2023-01-17T06:50:38.171Z,70.08
2023-01-17T06:53:07.234Z,70.24
2023-01-17T06:55:37.248Z,70.24
2023-01-17T06:58:05.203Z,70.22
2023-01-17T07:00:35.230Z,70.16
2023-01-17T07:03:03.407Z,70.07
2023-01-17T07:05:31.369Z,70.13
2023-01-17T07:07:59.355Z,70.04
2023-01-17T07:10:27.457Z,70.10
2023-01-17T07:13:00.737Z,70.12
2023-01-17T07:15:28.696Z,70.21
2023-01-17T07:17:56.546Z,70.11
2023-01-17T07:20:24.434Z,69.97
2023-01-17T07:22:52.381Z,70.09
2023-01-17T07:25:20.327Z,70.11
2023-01-17T07:27:48.600Z,70.02
2023-01-17T07:30:16.878Z,70.10
2023-01-17T07:32:44.759Z,70.07
2023-01-17T07:35:12.664Z,70.10
2023-01-17T07:37:40.663Z,70.09
2023-01-17T07:40:09.498Z,70.14
2023-01-17T07:42:37.566Z,70.01
2023-01-17T07:45:06.256Z,69.83
2023-01-17T07:47:34.171Z,70.05
2023-01-17T07:50:02.939Z,69.94
2023-01-17T07:52:31.382Z,69.99
2023-01-17T07:54:59.403Z,69.88
2023-01-17T07:57:27.380Z,69.88
2023-01-17T07:59:55.298Z,69.83
2023-01-17T08:02:23.736Z,69.80
2023-01-17T08:04:51.747Z,69.85
2023-01-17T08:07:19.641Z,69.78
2023-01-17T08:09:49.885Z,69.78
2023-01-17T08:12:18.109Z,69.79
2023-01-17T08:14:46.192Z,69.91
2023-01-17T08:17:16.403Z,69.91
2023-01-17T08:19:45.027Z,69.72
2023-01-17T08:22:13.014Z,69.59
2023-01-17T08:24:42.273Z,69.40
2023-01-17T08:27:10.426Z,69.20
2023-01-17T08:29:42.167Z,69.31
2023-01-17T08:32:10.079Z,69.22
2023-01-17T08:34:38.087Z,69.09
2023-01-17T08:37:06.100Z,69.06
2023-01-17T08:39:34.018Z,68.92
2023-01-17T08:42:01.987Z,68.92
2023-01-17T08:44:29.969Z,68.79
2023-01-17T08:46:57.967Z,68.62
2023-01-17T08:49:25.888Z,68.43
2023-01-17T08:51:53.929Z,68.29
2023-01-17T08:54:22.954Z,68.17
2023-01-17T08:56:52.854Z,69.01
2023-01-17T08:59:22.275Z,69.21
2023-01-17T09:01:52.529Z,68.44
2023-01-17T09:04:20.839Z,67.91
2023-01-17T09:06:48.847Z,67.74
2023-01-17T09:09:17.526Z,67.51
2023-01-17T09:11:45.536Z,67.33
2023-01-17T09:14:13.993Z,67.21
2023-01-17T09:16:41.867Z,67.21
2023-01-17T09:19:10.264Z,67.05
2023-01-17T09:21:38.159Z,66.95
2023-01-17T09:24:06.382Z,66.93
2023-01-17T09:26:35.621Z,66.91
2023-01-17T09:29:04.075Z,66.22
2023-01-17T09:31:32.109Z,65.90
2023-01-17T09:34:00.156Z,65.77
2023-01-17T09:36:28.984Z,65.51
2023-01-17T09:38:58.697Z,65.57
2023-01-17T09:41:30.210Z,65.43
2023-01-17T09:44:14.807Z,65.42
2023-01-17T09:46:46.263Z,65.21
2023-01-17T09:49:39.680Z,64.91
2023-01-17T09:52:11.922Z,64.76
2023-01-17T09:54:41.860Z,64.58
2023-01-17T09:57:16.059Z,64.59
2023-01-17T10:00:31.149Z,64.34
2023-01-17T10:03:16.437Z,63.93
2023-01-17T10:05:58.428Z,63.51
2023-01-17T10:08:34.119Z,63.48
2023-01-17T10:11:21.351Z,63.77
2023-01-17T10:14:08.313Z,63.68
2023-01-17T10:16:53.261Z,63.47
2023-01-17T10:19:28.486Z,63.28
2023-01-17T10:22:13.719Z,63.44
2023-01-17T10:25:17.806Z,63.33
2023-01-17T10:27:59.479Z,63.49
2023-01-17T10:30:32.738Z,63.42
2023-01-17T10:33:04.223Z,63.44
2023-01-17T10:35:37.438Z,63.44
2023-01-17T10:38:11.239Z,63.52
2023-01-17T10:40:40.606Z,63.49
2023-01-17T10:43:30.189Z,63.57
2023-01-17T10:45:57.307Z,63.50
2023-01-17T10:48:43.657Z,63.49
2023-01-17T10:51:43.317Z,63.40
2023-01-17T10:54:36.305Z,63.27
2023-01-17T10:57:03.246Z,63.20
2023-01-17T10:59:36.490Z,63.04
2023-01-17T11:02:14.657Z,62.96
2023-01-17T11:04:41.851Z,62.98
2023-01-17T11:07:15.934Z,62.99
2023-01-17T11:09:47.225Z,62.81
2023-01-17T11:12:20.118Z,62.87
2023-01-17T11:15:01.765Z,62.79
2023-01-17T11:17:29.588Z,62.42
2023-01-17T11:20:13.365Z,62.33
2023-01-17T11:22:45.538Z,62.55
2023-01-17T11:25:23.725Z,62.74
2023-01-17T11:28:04.437Z,62.56
2023-01-17T11:30:31.106Z,62.50
2023-01-17T11:33:05.487Z,62.38
2023-01-17T11:35:37.649Z,62.49
2023-01-17T11:38:20.945Z,62.43
2023-01-17T11:40:49.340Z,62.36
2023-01-17T11:43:20.848Z,62.38
2023-01-17T11:46:18.334Z,62.37
2023-01-17T11:48:56.446Z,62.38
2023-01-17T11:51:38.297Z,62.27
2023-01-17T11:54:29.511Z,62.21
2023-01-17T11:57:01.552Z,62.08
2023-01-17T11:59:35.267Z,62.13
2023-01-17T12:02:21.083Z,61.93
2023-01-17T12:04:50.771Z,61.78
2023-01-17T12:07:32.056Z,61.73
2023-01-17T12:10:08.624Z,61.81
2023-01-17T12:13:03.251Z,61.76
2023-01-17T12:15:44.936Z,61.47
2023-01-17T12:18:23.976Z,61.42
2023-01-17T12:20:56.323Z,61.55
2023-01-17T12:23:35.363Z,61.41
2023-01-17T12:26:31.195Z,61.32
2023-01-17T12:29:30.089Z,61.04
2023-01-17T12:32:21.121Z,60.84
2023-01-17T12:35:05.360Z,60.48
2023-01-17T12:37:38.307Z,60.50
2023-01-17T12:40:36.262Z,60.34
2023-01-17T12:43:14.702Z,60.17
2023-01-17T12:45:46.737Z,59.99
2023-01-17T12:48:17.797Z,60.12
2023-01-17T12:50:53.381Z,59.96
2023-01-17T12:53:35.454Z,59.72
2023-01-17T12:56:24.017Z,59.50
2023-01-17T12:58:55.917Z,59.22
2023-01-17T13:01:31.096Z,59.26
2023-01-17T13:04:10.406Z,59.24
2023-01-17T13:07:00.181Z,58.99
2023-01-17T13:09:34.367Z,59.07
2023-01-17T13:12:05.465Z,58.82
2023-01-17T13:14:32.370Z,58.81
2023-01-17T13:17:08.387Z,58.67
2023-01-17T13:19:47.696Z,58.60
2023-01-17T13:22:16.869Z,58.45
2023-01-17T13:24:43.446Z,58.53
2023-01-17T13:27:21.903Z,58.53
2023-01-17T13:29:59.464Z,58.35
2023-01-17T13:32:49.507Z,58.03
2023-01-17T13:35:44.291Z,57.90
2023-01-17T13:38:29.269Z,57.63
2023-01-17T13:41:36.189Z,57.19
2023-01-17T13:44:21.010Z,57.10
2023-01-17T13:46:54.692Z,56.92
2023-01-17T13:49:30.955Z,56.82
2023-01-17T13:52:03.678Z,56.81
2023-01-17T13:54:32.184Z,56.62
2023-01-17T13:57:32.246Z,56.52
2023-01-17T14:00:35.062Z,56.43
2023-01-17T14:03:01.871Z,56.31
2023-01-17T14:05:37.565Z,56.18
2023-01-17T14:08:12.308Z,56.35
2023-01-17T14:10:46.677Z,56.14
2023-01-17T14:13:35.008Z,56.00
2023-01-17T14:16:07.009Z,56.01
2023-01-17T14:18:41.184Z,55.93
2023-01-17T14:21:28.255Z,56.16
2023-01-17T14:23:59.887Z,56.03
2023-01-17T14:26:33.612Z,56.02
2023-01-17T14:29:20.067Z,56.06
2023-01-17T14:31:53.526Z,56.05
2023-01-17T14:34:21.414Z,56.07
2023-01-17T14:36:48.271Z,56.31
2023-01-17T14:39:21.871Z,56.37
2023-01-17T14:41:48.597Z,56.33
2023-01-17T14:44:15.292Z,56.28
2023-01-17T14:46:47.826Z,56.39
2023-01-17T14:49:24.724Z,56.37
2023-01-17T14:51:59.395Z,56.36
2023-01-17T14:54:25.951Z,56.56
2023-01-17T14:57:13.114Z,56.42
2023-01-17T14:59:39.628Z,56.45
2023-01-17T15:02:15.690Z,56.41
2023-01-17T15:04:42.485Z,56.32
2023-01-17T15:07:15.534Z,56.37
2023-01-17T15:09:43.906Z,56.41
2023-01-17T15:12:13.789Z,56.59
2023-01-17T15:14:43.910Z,56.54
2023-01-17T15:17:18.317Z,56.42
2023-01-17T15:19:48.822Z,56.61
2023-01-17T15:22:18.102Z,56.72
2023-01-17T15:24:46.255Z,56.48
2023-01-17T15:27:15.599Z,56.60
2023-01-17T15:29:44.638Z,56.62
2023-01-17T15:32:21.930Z,56.59
2023-01-17T15:34:50.273Z,56.55
2023-01-17T15:37:26.839Z,56.52
2023-01-17T15:40:02.881Z,56.67
2023-01-17T15:42:32.716Z,56.70
2023-01-17T15:45:04.020Z,56.72
2023-01-17T15:47:37.972Z,56.70
2023-01-17T15:50:39.006Z,56.88
2023-01-17T15:53:12.586Z,56.71
2023-01-17T15:55:39.625Z,56.72
2023-01-17T15:58:24.497Z,56.75
2023-01-17T16:00:51.121Z,57.01
2023-01-17T16:03:22.715Z,56.85
2023-01-17T16:05:51.623Z,56.89
2023-01-17T16:08:27.463Z,56.87
2023-01-17T16:10:57.856Z,56.85
2023-01-17T16:13:24.434Z,56.99
2023-01-17T16:15:51.038Z,56.93
2023-01-17T16:18:23.304Z,56.99
2023-01-17T16:20:59.332Z,57.03
2023-01-17T16:23:27.506Z,57.23
2023-01-17T16:25:54.391Z,57.30
2023-01-17T16:28:20.957Z,57.08
2023-01-17T16:30:48.203Z,57.21
2023-01-17T16:33:15.146Z,57.30
2023-01-17T16:35:42.383Z,57.32
2023-01-17T16:38:19.055Z,57.43
2023-01-17T16:40:46.856Z,57.45
2023-01-17T16:43:15.119Z,57.47
2023-01-17T16:45:44.813Z,57.47
2023-01-17T16:48:12.293Z,57.39
2023-01-17T16:50:47.495Z,57.54
2023-01-17T16:53:14.659Z,57.45
2023-01-17T16:55:42.248Z,57.76
2023-01-17T16:58:09.050Z,57.90
2023-01-17T17:00:35.908Z,57.91
2023-01-17T17:03:02.549Z,57.87
2023-01-17T17:05:30.029Z,58.03
2023-01-17T17:07:57.115Z,58.03
2023-01-17T17:10:24.586Z,58.10
2023-01-17T17:12:51.452Z,58.13
2023-01-17T17:15:18.230Z,58.19
2023-01-17T17:17:44.828Z,58.09
2023-01-17T17:20:14.002Z,58.12
2023-01-17T17:22:43.306Z,58.28
2023-01-17T17:25:11.301Z,58.44
2023-01-17T17:27:38.197Z,58.43
2023-01-17T17:30:05.642Z,58.64
2023-01-17T17:32:32.260Z,58.63
2023-01-17T17:34:59.356Z,58.67
2023-01-17T17:37:28.346Z,58.81
2023-01-17T17:39:56.166Z,58.96
2023-01-17T17:42:22.839Z,59.13
2023-01-17T17:44:49.468Z,58.99
2023-01-17T17:47:16.061Z,59.17
2023-01-17T17:49:42.826Z,59.25
2023-01-17T17:52:10.091Z,59.22
2023-01-17T17:54:36.617Z,59.07
2023-01-17T17:57:03.321Z,59.21
2023-01-17T17:59:30.553Z,59.29
2023-01-17T18:01:59.028Z,59.37
2023-01-17T18:04:25.652Z,59.45
2023-01-17T18:06:56.202Z,59.42
2023-01-17T18:09:23.105Z,59.49
2023-01-17T18:11:49.722Z,59.66
2023-01-17T18:14:20.105Z,59.62
2023-01-17T18:16:47.200Z,59.52
2023-01-17T18:19:18.581Z,59.76
2023-01-17T18:21:45.630Z,59.73
2023-01-17T18:24:14.353Z,59.73
2023-01-17T18:26:43.546Z,59.85
2023-01-17T18:29:14.110Z,59.85
2023-01-17T18:31:42.524Z,60.05
2023-01-17T18:34:20.452Z,60.09
2023-01-17T18:36:47.375Z,60.14
2023-01-17T18:39:23.854Z,60.09
2023-01-17T18:41:50.787Z,60.16
2023-01-17T18:44:21.628Z,60.38
2023-01-17T18:46:50.121Z,60.35
2023-01-17T18:49:18.440Z,60.40
2023-01-17T18:51:49.800Z,60.57
2023-01-17T18:54:17.158Z,60.49
2023-01-17T18:56:43.965Z,60.53
2023-01-17T18:59:17.454Z,60.60
2023-01-17T19:01:44.165Z,60.64
2023-01-17T19:04:12.896Z,60.74
2023-01-17T19:06:41.860Z,60.69
2023-01-17T19:09:10.849Z,60.89
2023-01-17T19:11:37.503Z,61.01
2023-01-17T19:14:05.083Z,61.03
2023-01-17T19:16:35.301Z,61.16
2023-01-17T19:19:06.229Z,61.06
2023-01-17T19:21:33.283Z,61.02
2023-01-17T19:24:00.547Z,61.00
2023-01-17T19:26:27.801Z,61.37
2023-01-17T19:28:57.960Z,61.49
2023-01-17T19:31:26.982Z,61.38
2023-01-17T19:33:56.680Z,61.33
2023-01-17T19:36:42.031Z,61.30
2023-01-17T19:39:09.184Z,61.45
2023-01-17T19:41:40.398Z,61.33
2023-01-17T19:44:09.188Z,61.38
2023-01-17T19:46:36.439Z,61.42
2023-01-17T19:49:05.586Z,61.41
2023-01-17T19:51:32.475Z,61.54
2023-01-17T19:54:03.365Z,61.63
2023-01-17T19:56:29.940Z,61.70
2023-01-17T19:59:00.017Z,61.82
2023-01-17T20:01:29.545Z,61.94
2023-01-17T20:03:58.160Z,62.00
2023-01-17T20:06:30.961Z,62.01
2023-01-17T20:08:57.807Z,62.02
2023-01-17T20:11:25.895Z,62.12
2023-01-17T20:13:55.113Z,62.06
2023-01-17T20:16:23.318Z,61.98
2023-01-17T20:18:49.930Z,62.13
2023-01-17T20:21:19.323Z,62.05
2023-01-17T20:23:47.029Z,62.34
2023-01-17T20:26:16.218Z,62.20
2023-01-17T20:28:45.347Z,62.08
2023-01-17T20:31:14.724Z,62.38
2023-01-17T20:33:43.416Z,62.38
2023-01-17T20:36:14.768Z,62.35
2023-01-17T20:38:43.208Z,62.42
2023-01-17T20:41:10.343Z,62.52
2023-01-17T20:43:37.185Z,62.60
2023-01-17T20:46:05.163Z,62.66
2023-01-17T20:48:32.091Z,62.61
2023-01-17T20:51:05.049Z,62.75
2023-01-17T20:53:34.287Z,62.88
2023-01-17T20:56:01.084Z,62.79
2023-01-17T20:58:28.220Z,62.84
2023-01-17T21:00:55.391Z,62.93
2023-01-17T21:03:23.454Z,62.90
2023-01-17T21:05:50.993Z,62.95
2023-01-17T21:08:18.689Z,62.85
2023-01-17T21:10:47.725Z,63.03
2023-01-17T21:13:14.952Z,63.07
2023-01-17T21:15:43.313Z,63.10
2023-01-17T21:18:09.905Z,62.99
2023-01-17T21:20:36.462Z,63.00
2023-01-17T21:23:03.009Z,63.10
2023-01-17T21:25:29.628Z,63.23
2023-01-17T21:27:56.437Z,63.20
2023-01-17T21:30:23.139Z,63.26
2023-01-17T21:32:49.652Z,63.32
2023-01-17T21:35:16.178Z,63.43
2023-01-17T21:37:42.844Z,63.59
2023-01-17T21:40:10.121Z,63.45
2023-01-17T21:42:36.706Z,63.47
2023-01-17T21:45:03.478Z,63.54
2023-01-17T21:47:30.095Z,63.48
2023-01-17T21:49:56.570Z,63.48
2023-01-17T21:52:23.115Z,63.45
2023-01-17T21:55:08.380Z,63.54
2023-01-17T21:57:53.489Z,63.60
2023-01-17T22:00:20.117Z,63.71
2023-01-17T22:02:47.664Z,63.72
2023-01-17T22:05:16.017Z,63.68
2023-01-17T22:08:03.671Z,63.80
2023-01-17T22:10:30.483Z,63.88
2023-01-17T22:12:57.049Z,64.06
2023-01-17T22:15:23.788Z,63.90
2023-01-17T22:17:50.416Z,63.95
2023-01-17T22:20:17.428Z,64.00
2023-01-17T22:22:45.460Z,64.08
2023-01-17T22:25:13.028Z,64.12
2023-01-17T22:27:39.557Z,64.26
2023-01-17T22:30:12.126Z,64.29
2023-01-17T22:32:38.997Z,64.31
2023-01-17T22:35:06.852Z,64.39
2023-01-17T22:37:34.269Z,64.43
2023-01-17T22:40:04.083Z,64.59
2023-01-17T22:42:34.088Z,64.53
2023-01-17T22:45:00.715Z,64.56
2023-01-17T22:47:27.286Z,64.62
2023-01-17T22:49:53.833Z,64.68
2023-01-17T22:52:20.346Z,64.70
2023-01-17T22:54:46.902Z,64.62
2023-01-17T22:57:13.437Z,64.64
2023-01-17T22:59:39.967Z,64.77
2023-01-17T23:02:06.549Z,64.86
2023-01-17T23:04:33.094Z,64.82
2023-01-17T23:06:59.920Z,64.80
2023-01-17T23:09:26.444Z,64.87
2023-01-17T23:11:54.481Z,64.73
2023-01-17T23:14:21.005Z,64.74
2023-01-17T23:17:09.467Z,64.93
2023-01-17T23:19:38.280Z,64.81
2023-01-17T23:22:19.725Z,65.06
2023-01-17T23:24:55.556Z,65.18
2023-01-17T23:27:45.021Z,65.26
2023-01-17T23:30:11.630Z,65.32
2023-01-17T23:32:42.212Z,65.57
2023-01-17T23:35:08.887Z,65.50
2023-01-17T23:37:54.514Z,65.65
2023-01-17T23:40:21.448Z,65.67
2023-01-17T23:43:06.885Z,65.82
2023-01-17T23:45:35.183Z,65.94
2023-01-17T23:48:04.803Z,66.17
2023-01-17T23:50:32.332Z,66.17
2023-01-17T23:52:59.188Z,66.11
2023-01-17T23:55:25.902Z,66.24
2023-01-17T23:57:53.645Z,66.39
